createdAt,value
2017-02-17T00:00:02.459Z,4.5
2017-02-17T00:05:02.773Z,4.5
2017-02-17T00:10:02.701Z,4.5
2017-02-17T00:15:02.698Z,4.5
2017-02-17T00:20:02.762Z,4.5
2017-02-17T00:25:02.743Z,4.5
2017-02-17T00:30:02.619Z,4.5
2017-02-17T00:35:02.508Z,4.5
2017-02-17T00:40:02.808Z,4.5
2017-02-17T00:45:02.613Z,4.5
2017-02-17T00:50:02.478Z,4.5
2017-02-17T00:55:03.227Z,4.8
2017-02-17T01:00:02.957Z,4.8
2017-02-17T01:05:03.160Z,4.8
2017-02-17T01:10:03.248Z,4.5
2017-02-17T01:15:03.117Z,4.5
2017-02-17T01:20:03.026Z,4.8
2017-02-17T01:25:02.857Z,4.5
2017-02-17T01:30:02.688Z,4.5
2017-02-17T01:35:03.396Z,4.5
2017-02-17T01:40:02.545Z,4.5
2017-02-17T01:45:02.516Z,4.5
2017-02-17T01:50:02.801Z,4.5
2017-02-17T01:55:02.737Z,4.5
2017-02-17T02:00:02.611Z,4.5
2017-02-17T02:05:03.324Z,4.5
2017-02-17T02:10:03.226Z,4.3
2017-02-17T02:15:03.050Z,4.3
2017-02-17T02:20:03.031Z,4.5
2017-02-17T02:25:03.138Z,4.3
2017-02-17T02:30:03.235Z,4.3
2017-02-17T02:35:06.182Z,4.3
2017-02-17T02:40:03.116Z,4.5
2017-02-17T02:45:03.116Z,4.5
2017-02-17T02:50:02.996Z,4.5
2017-02-17T02:55:03.064Z,4.8
2017-02-17T03:00:02.819Z,4.8
2017-02-17T03:05:02.469Z,4.8
2017-02-17T03:10:03.282Z,5.0
2017-02-17T03:15:03.303Z,5.0
2017-02-17T03:20:03.034Z,5.0
2017-02-17T03:25:03.013Z,5.0
2017-02-17T03:30:02.809Z,5.0
2017-02-17T03:35:02.636Z,5.0
2017-02-17T03:40:03.345Z,5.3
2017-02-17T03:45:03.225Z,5.3
2017-02-17T03:50:02.410Z,5.3
2017-02-17T03:55:03.276Z,5.3
2017-02-17T04:00:03.011Z,5.3
2017-02-17T04:05:02.890Z,5.3
2017-02-17T04:10:02.939Z,5.3
2017-02-17T04:15:02.835Z,5.3
2017-02-17T04:20:02.855Z,5.3
2017-02-17T04:25:02.793Z,5.3
2017-02-17T04:30:02.859Z,5.4
2017-02-17T04:35:02.849Z,5.3
2017-02-17T04:40:02.714Z,5.4
2017-02-17T04:45:02.714Z,5.4
2017-02-17T04:50:02.727Z,5.4
2017-02-17T04:55:02.556Z,5.4
2017-02-17T05:00:02.734Z,5.4
2017-02-17T05:05:02.628Z,5.4
2017-02-17T05:10:02.882Z,5.4
2017-02-17T05:15:03.005Z,5.4
2017-02-17T05:20:03.009Z,5.4
2017-02-17T05:25:02.799Z,5.4
2017-02-17T05:30:02.628Z,5.5
2017-02-17T05:35:02.437Z,5.5
2017-02-17T05:40:03.192Z,5.5
2017-02-17T05:55:03.154Z,5.5
2017-02-17T06:00:03.066Z,5.5
2017-02-17T06:05:02.821Z,5.5
2017-02-17T06:10:02.543Z,5.5
2017-02-17T06:15:02.649Z,5.5
2017-02-17T06:20:02.445Z,5.8
2017-02-17T06:25:03.260Z,5.8
2017-02-17T06:30:03.123Z,5.8
2017-02-17T06:35:02.911Z,5.5
2017-02-17T06:40:02.899Z,5.8
2017-02-17T06:45:02.984Z,5.8
2017-02-17T06:50:03.109Z,5.8
2017-02-17T06:55:03.138Z,5.8
2017-02-17T07:00:03.238Z,5.8
2017-02-17T07:05:03.274Z,5.8
2017-02-17T07:10:02.434Z,5.8
2017-02-17T07:15:02.492Z,5.8
2017-02-17T07:20:02.613Z,5.9
2017-02-17T07:25:02.763Z,5.9
2017-02-17T07:30:03.029Z,5.9
2017-02-17T07:35:02.990Z,6.0
2017-02-17T07:40:03.047Z,6.0
2017-02-17T07:45:02.994Z,6.0
2017-02-17T07:50:03.054Z,6.1
2017-02-17T07:55:03.200Z,6.4
2017-02-17T08:00:03.163Z,6.4
2017-02-17T08:05:03.247Z,6.4
2017-02-17T08:10:03.180Z,6.5
2017-02-17T08:15:02.901Z,6.5
2017-02-17T08:20:02.682Z,6.5
2017-02-17T08:25:02.772Z,6.5
2017-02-17T08:30:02.653Z,6.5
2017-02-17T08:35:02.486Z,6.5
2017-02-17T08:40:02.537Z,6.6
2017-02-17T08:45:02.434Z,6.5
2017-02-17T08:50:03.543Z,6.5
2017-02-17T08:55:03.256Z,6.6
2017-02-17T09:00:02.938Z,6.6
2017-02-17T09:05:02.799Z,6.6
2017-02-17T09:10:02.782Z,6.6
2017-02-17T09:15:02.501Z,6.9
2017-02-17T09:20:03.289Z,6.9
2017-02-17T09:25:03.020Z,6.6
2017-02-17T09:30:03.129Z,6.1
2017-02-17T09:35:03.039Z,6.0
2017-02-17T09:40:02.831Z,6.1
2017-02-17T09:45:02.582Z,6.0
2017-02-17T09:50:02.438Z,6.1
2017-02-17T09:55:03.310Z,6.4
2017-02-17T10:00:03.139Z,6.4
2017-02-17T10:05:03.245Z,6.5
2017-02-17T10:10:03.325Z,6.4
2017-02-17T10:15:03.454Z,6.5
2017-02-17T10:20:02.493Z,6.4
2017-02-17T10:25:02.481Z,6.5
2017-02-17T10:30:02.598Z,6.6
2017-02-17T10:35:02.746Z,6.5
2017-02-17T10:40:02.817Z,6.6
2017-02-17T10:45:02.839Z,7.0
2017-02-17T10:50:02.830Z,7.0
2017-02-17T10:55:02.796Z,7.0
2017-02-17T11:00:02.818Z,6.9
2017-02-17T11:05:02.809Z,7.0
2017-02-17T11:10:02.814Z,6.9
2017-02-17T11:15:02.823Z,6.9
2017-02-17T11:20:02.850Z,6.6
2017-02-17T11:25:02.834Z,6.9
2017-02-17T11:30:02.832Z,7.0
2017-02-17T11:35:02.810Z,7.4
2017-02-17T11:40:02.871Z,7.5
2017-02-17T11:45:02.854Z,7.6
2017-02-17T11:50:02.839Z,7.4
2017-02-17T11:55:02.832Z,7.5
2017-02-17T12:00:02.802Z,7.5
2017-02-17T12:05:02.799Z,7.4
2017-02-17T12:10:02.870Z,7.4
2017-02-17T12:15:02.856Z,7.5
2017-02-17T12:20:02.804Z,7.6
2017-02-17T12:25:02.799Z,7.5
2017-02-17T12:30:02.786Z,7.5
2017-02-17T12:35:02.830Z,7.4
2017-02-17T12:40:02.925Z,7.1
2017-02-17T12:45:02.957Z,6.9
2017-02-17T12:50:02.984Z,6.9
2017-02-17T12:55:03.008Z,7.1
2017-02-17T13:00:02.978Z,7.6
2017-02-17T13:05:03.036Z,7.5
2017-02-17T13:10:03.109Z,7.5
2017-02-17T13:15:03.108Z,7.6
2017-02-17T13:20:03.032Z,7.5
2017-02-17T13:25:03.109Z,7.1
2017-02-17T13:30:03.104Z,7.1
2017-02-17T13:35:03.117Z,7.1
2017-02-17T13:40:03.230Z,7.1
2017-02-17T13:45:03.232Z,7.5
2017-02-17T13:50:03.251Z,7.5
2017-02-17T13:55:03.265Z,7.6
2017-02-17T14:00:03.343Z,7.5
2017-02-17T14:05:03.384Z,7.1
2017-02-17T14:10:02.508Z,7.4
2017-02-17T14:15:02.594Z,6.9
2017-02-17T14:20:02.654Z,6.6
2017-02-17T14:25:02.650Z,6.6
2017-02-17T14:30:02.689Z,6.5
2017-02-17T14:35:02.730Z,6.6
2017-02-17T14:40:02.820Z,6.6
2017-02-17T14:45:02.875Z,6.6
2017-02-17T14:50:02.870Z,6.6
2017-02-17T14:55:02.919Z,6.6
2017-02-17T15:00:02.935Z,7.0
2017-02-17T15:05:02.949Z,7.0
2017-02-17T15:10:03.036Z,7.0
2017-02-17T15:15:03.596Z,6.9
2017-02-17T15:20:02.647Z,6.9
2017-02-17T15:25:02.678Z,6.6
2017-02-17T15:30:02.722Z,7.0
2017-02-17T15:35:02.705Z,6.6
2017-02-17T15:40:02.733Z,6.9
2017-02-17T15:45:02.714Z,6.6
2017-02-17T15:50:02.752Z,6.9
2017-02-17T15:55:02.853Z,6.9
2017-02-17T16:00:02.895Z,6.9
2017-02-17T16:05:02.935Z,6.9
2017-02-17T16:10:03.046Z,6.9
2017-02-17T16:15:03.015Z,6.9
2017-02-17T16:20:03.085Z,6.9
2017-02-17T16:25:03.109Z,6.9
2017-02-17T16:30:03.134Z,6.6
2017-02-17T16:35:03.106Z,6.6
2017-02-17T16:40:03.153Z,6.6
2017-02-17T16:45:03.168Z,6.6
2017-02-17T16:50:03.180Z,6.6
2017-02-17T16:55:03.262Z,6.5
2017-02-17T17:00:03.504Z,6.6
2017-02-17T17:05:02.492Z,6.5
2017-02-17T17:10:02.573Z,6.6
2017-02-17T17:15:02.548Z,6.5
2017-02-17T17:20:02.593Z,6.5
2017-02-17T17:25:02.683Z,6.5
2017-02-17T17:30:02.716Z,6.5
2017-02-17T17:35:02.791Z,6.5
2017-02-17T17:40:02.806Z,6.5
2017-02-17T17:45:02.818Z,6.5
2017-02-17T17:50:02.846Z,6.5
2017-02-17T17:55:02.835Z,6.4
2017-02-17T18:00:02.832Z,6.5
2017-02-17T18:05:02.972Z,6.4
2017-02-17T18:10:03.035Z,6.4
2017-02-17T18:15:02.952Z,6.4
2017-02-17T18:20:02.870Z,6.4
2017-02-17T18:25:02.862Z,6.4
2017-02-17T18:30:02.905Z,6.4
2017-02-17T18:35:02.924Z,6.4
2017-02-17T18:40:02.983Z,6.4
2017-02-17T18:45:02.979Z,6.4
2017-02-17T18:50:02.989Z,6.4
2017-02-17T18:55:02.985Z,6.4
2017-02-17T19:00:03.077Z,6.4
2017-02-17T19:05:03.026Z,6.4
2017-02-17T19:10:03.111Z,6.4
2017-02-17T19:15:03.133Z,6.4
2017-02-17T19:20:03.161Z,6.4
2017-02-17T19:25:03.223Z,6.4
2017-02-17T19:30:03.284Z,6.1
2017-02-17T19:35:03.319Z,6.1
2017-02-17T19:40:02.431Z,6.4
2017-02-17T19:45:02.458Z,6.4
2017-02-17T19:50:02.440Z,6.1
2017-02-17T19:55:02.444Z,6.4
2017-02-17T20:00:02.665Z,6.4
2017-02-17T20:05:02.736Z,6.5
2017-02-17T20:10:02.797Z,6.5
2017-02-17T20:15:02.834Z,6.6
2017-02-17T20:20:02.841Z,6.6
2017-02-17T20:25:02.812Z,6.6
2017-02-17T20:30:02.855Z,6.6
2017-02-17T20:35:02.800Z,6.6
2017-02-17T20:40:02.898Z,6.6
2017-02-17T20:45:02.904Z,6.6
2017-02-17T20:50:02.911Z,6.6
2017-02-17T20:55:02.931Z,6.6
2017-02-17T21:00:02.910Z,6.5
2017-02-17T21:05:02.891Z,6.5
2017-02-17T21:10:02.977Z,6.5
2017-02-17T21:15:02.974Z,6.5
2017-02-17T21:20:03.045Z,6.5
2017-02-17T21:25:03.076Z,6.5
2017-02-17T21:30:03.066Z,6.6
2017-02-17T21:35:03.146Z,6.6
2017-02-17T21:40:03.218Z,6.5
2017-02-17T21:45:03.269Z,6.6
2017-02-17T21:50:03.319Z,6.6
2017-02-17T21:55:03.279Z,6.6
2017-02-17T22:00:03.521Z,6.9
2017-02-17T22:05:02.597Z,7.0
2017-02-17T22:10:02.694Z,6.9
2017-02-17T22:15:02.708Z,7.0
2017-02-17T22:20:02.770Z,6.9
2017-02-17T22:25:02.845Z,6.6
2017-02-17T22:30:02.841Z,6.5
2017-02-17T22:35:02.883Z,6.5
2017-02-17T22:40:02.919Z,6.6
2017-02-17T22:45:02.857Z,6.6
2017-02-17T22:50:02.859Z,6.5
2017-02-17T22:55:02.871Z,6.5
2017-02-17T23:00:02.872Z,6.6
2017-02-17T23:05:02.898Z,6.5
2017-02-17T23:10:02.925Z,6.5
2017-02-17T23:15:02.945Z,6.4
2017-02-17T23:20:02.985Z,6.4
2017-02-17T23:25:02.970Z,6.1
2017-02-17T23:30:03.007Z,6.4
2017-02-17T23:35:03.019Z,6.4
2017-02-17T23:40:03.125Z,6.4
2017-02-17T23:45:03.108Z,6.1
2017-02-17T23:50:03.105Z,6.1
2017-02-17T23:55:03.192Z,6.0
